createdAt,value
2023-02-09T00:01:29.041Z,102806.59
2023-02-09T00:03:57.233Z,102788.97
2023-02-09T00:06:26.349Z,102800.41
2023-02-09T00:08:53.497Z,102791.63
2023-02-09T00:11:46.946Z,102803.06
2023-02-09T00:14:16.604Z,102806.63
2023-02-09T00:16:43.940Z,102807.50
2023-02-09T00:19:12.648Z,102789.88
2023-02-09T00:21:40.759Z,102797.78
2023-02-09T00:24:10.687Z,102796.03
2023-02-09T00:26:38.995Z,102794.28
2023-02-09T00:29:07.357Z,102788.13
2023-02-09T00:31:35.276Z,102778.41
2023-02-09T00:34:02.803Z,102790.75
2023-02-09T00:36:30.437Z,102787.22
2023-02-09T00:38:57.491Z,102780.16
2023-02-09T00:41:43.085Z,102795.16
2023-02-09T00:44:11.998Z,102771.38
2023-02-09T00:46:39.116Z,102791.66
2023-02-09T00:49:06.354Z,102766.97
2023-02-09T00:51:33.618Z,102762.53
2023-02-09T00:54:02.878Z,102766.97
2023-02-09T00:56:29.878Z,102770.47
2023-02-09T00:58:56.878Z,102765.19
2023-02-09T01:01:25.222Z,102774.91
2023-02-09T01:03:53.152Z,102775.78
2023-02-09T01:06:21.052Z,102783.69
2023-02-09T01:08:47.996Z,102769.59
2023-02-09T01:11:18.135Z,102762.53
2023-02-09T01:13:46.102Z,102769.63
2023-02-09T01:16:16.892Z,102753.72
2023-02-09T01:18:45.003Z,102775.78
2023-02-09T01:21:19.794Z,102774.88
2023-02-09T01:23:48.009Z,102775.72
2023-02-09T01:26:18.507Z,102766.03
2023-02-09T01:28:50.931Z,102779.25
2023-02-09T01:31:26.337Z,102778.38
2023-02-09T01:33:55.807Z,102763.41
2023-02-09T01:36:22.957Z,102759.00
2023-02-09T01:38:50.331Z,102766.91
2023-02-09T01:41:17.740Z,102753.69
2023-02-09T01:44:07.493Z,102766.88
2023-02-09T01:46:36.890Z,102766.00
2023-02-09T01:49:12.676Z,102759.84
2023-02-09T01:52:04.775Z,102765.97
2023-02-09T01:54:37.895Z,102760.69
2023-02-09T01:57:12.603Z,102751.00
2023-02-09T01:59:43.754Z,102748.34
2023-02-09T02:02:11.581Z,102740.41
2023-02-09T02:04:41.421Z,102732.50
2023-02-09T02:07:40.005Z,102733.41
2023-02-09T02:10:07.963Z,102736.03
2023-02-09T02:12:36.146Z,102724.56
2023-02-09T02:15:03.575Z,102716.66
2023-02-09T02:17:56.677Z,102721.06
2023-02-09T02:20:58.430Z,102719.34
2023-02-09T02:23:56.316Z,102717.56
2023-02-09T02:26:56.974Z,102715.81
2023-02-09T02:30:03.192Z,102708.75
2023-02-09T02:33:18.501Z,102692.91
2023-02-09T02:36:03.343Z,102698.16
2023-02-09T02:38:54.330Z,102677.00
2023-02-09T02:42:08.076Z,102699.06
2023-02-09T02:44:40.259Z,102684.06
2023-02-09T02:47:12.697Z,102699.03
2023-02-09T02:49:42.945Z,102691.97
2023-02-09T02:52:11.108Z,102698.13
2023-02-09T02:54:50.451Z,102689.31
2023-02-09T02:57:22.022Z,102699.88
2023-02-09T02:59:55.870Z,102698.09
2023-02-09T03:02:33.941Z,102707.75
2023-02-09T03:05:03.433Z,102700.72
2023-02-09T03:07:30.434Z,102700.66
2023-02-09T03:09:57.548Z,102701.53
2023-02-09T03:12:55.636Z,102705.09
2023-02-09T03:16:10.627Z,102698.03
2023-02-09T03:19:46.792Z,102693.66
2023-02-09T03:22:26.346Z,102701.59
2023-02-09T03:25:18.056Z,102692.78
2023-02-09T03:28:07.496Z,102692.78
2023-02-09T03:30:35.924Z,102688.38
2023-02-09T03:33:05.182Z,102687.50
2023-02-09T03:35:39.733Z,102682.22
2023-02-09T03:38:07.190Z,102694.56
2023-02-09T03:40:34.792Z,102683.94
2023-02-09T03:43:01.688Z,102682.19
2023-02-09T03:45:28.684Z,102679.53
2023-02-09T03:47:55.594Z,102669.84
2023-02-09T03:50:22.618Z,102669.00
2023-02-09T03:52:50.675Z,102645.25
2023-02-09T03:55:17.789Z,102659.31
2023-02-09T03:57:44.769Z,102660.19
2023-02-09T04:00:12.763Z,102661.94
2023-02-09T04:02:41.746Z,102656.66
2023-02-09T04:05:09.821Z,102657.53
2023-02-09T04:07:37.561Z,102658.44
2023-02-09T04:10:05.138Z,102655.81
2023-02-09T04:12:32.215Z,102639.94
2023-02-09T04:14:59.159Z,102646.13
2023-02-09T04:17:26.116Z,102642.63
2023-02-09T04:19:53.208Z,102634.75
2023-02-09T04:22:20.107Z,102634.75
2023-02-09T04:24:47.056Z,102617.13
2023-02-09T04:27:14.002Z,102626.81
2023-02-09T04:29:40.966Z,102626.81
2023-02-09T04:32:08.011Z,102637.41
2023-02-09T04:34:35.023Z,102636.53
2023-02-09T04:37:01.887Z,102633.00
2023-02-09T04:39:28.971Z,102631.22
2023-02-09T04:41:55.899Z,102639.16
2023-02-09T04:44:22.889Z,102624.19
2023-02-09T04:46:49.853Z,102617.13
2023-02-09T04:49:16.789Z,102612.75
2023-02-09T04:51:43.815Z,102613.63
2023-02-09T04:54:10.795Z,102617.16
2023-02-09T04:56:38.819Z,102599.53
2023-02-09T04:59:24.402Z,102598.63
2023-02-09T05:01:52.114Z,102598.66
2023-02-09T05:04:19.142Z,102598.63
2023-02-09T05:06:46.120Z,102583.69
2023-02-09T05:09:13.117Z,102590.72
2023-02-09T05:11:40.038Z,102592.47
2023-02-09T05:14:07.013Z,102592.47
2023-02-09T05:16:34.041Z,102596.00
2023-02-09T05:19:01.102Z,102612.72
2023-02-09T05:21:28.062Z,102608.31
2023-02-09T05:23:54.997Z,102604.81
2023-02-09T05:26:21.905Z,102613.63
2023-02-09T05:28:48.908Z,102614.50
2023-02-09T05:31:16.629Z,102620.66
2023-02-09T05:33:43.796Z,102625.03
2023-02-09T05:36:12.777Z,102623.28
2023-02-09T05:38:40.582Z,102619.75
2023-02-09T05:41:10.319Z,102619.75
2023-02-09T05:43:38.734Z,102612.72
2023-02-09T05:46:08.267Z,102603.88
2023-02-09T05:48:35.523Z,102584.53
2023-02-09T05:51:02.523Z,102600.38
2023-02-09T05:53:29.451Z,102592.44
2023-02-09T06:00:05.638Z,102608.31
2023-02-09T06:02:39.066Z,102600.34
2023-02-09T06:05:06.480Z,102615.34
2023-02-09T06:07:33.974Z,102619.75
2023-02-09T06:10:01.109Z,102619.75
2023-02-09T06:12:28.018Z,102620.63
2023-02-09T06:14:54.870Z,102618.00
2023-02-09T06:17:22.593Z,102628.56
2023-02-09T06:19:49.706Z,102637.34
2023-02-09T06:22:16.676Z,102631.19
2023-02-09T06:24:43.675Z,102644.41
2023-02-09T06:27:13.301Z,102657.63
2023-02-09T06:29:40.422Z,102654.97
2023-02-09T06:32:07.380Z,102669.09
2023-02-09T06:34:34.464Z,102664.69
2023-02-09T06:37:01.447Z,102667.31
2023-02-09T06:39:29.547Z,102662.03
2023-02-09T06:41:56.594Z,102651.44
2023-02-09T06:44:23.738Z,102662.03
2023-02-09T06:46:50.777Z,102655.88
2023-02-09T06:49:18.963Z,102665.56
2023-02-09T06:51:46.259Z,102666.44
2023-02-09T06:54:13.251Z,102668.22
2023-02-09T06:56:40.228Z,102673.50
2023-02-09T06:59:07.177Z,102671.75
2023-02-09T07:01:34.164Z,102677.91
2023-02-09T07:04:01.390Z,102669.09
2023-02-09T07:06:28.412Z,102659.38
2023-02-09T07:08:55.317Z,102664.69
2023-02-09T07:11:22.298Z,102669.97
2023-02-09T07:13:49.243Z,102662.03
2023-02-09T07:16:16.287Z,102650.59
2023-02-09T07:18:43.661Z,102646.13
2023-02-09T07:21:20.102Z,102650.56
2023-02-09T07:23:48.066Z,102642.66
2023-02-09T07:26:17.689Z,102654.97
2023-02-09T07:28:44.994Z,102653.19
2023-02-09T07:31:15.123Z,102642.63
2023-02-09T07:33:42.297Z,102657.59
2023-02-09T07:36:13.191Z,102655.81
2023-02-09T07:38:40.835Z,102656.69
2023-02-09T07:41:14.423Z,102659.34
2023-02-09T07:43:41.370Z,102654.03
2023-02-09T07:46:08.691Z,102656.69
2023-02-09T07:48:36.684Z,102657.56
2023-02-09T07:51:04.532Z,102668.16
2023-02-09T07:53:31.598Z,102661.97
2023-02-09T07:55:58.724Z,102659.28
2023-02-09T07:58:25.720Z,102661.94
2023-02-09T08:00:52.650Z,102655.75
2023-02-09T08:03:23.105Z,102660.16
2023-02-09T08:06:02.640Z,102668.06
2023-02-09T08:08:29.578Z,102664.53
2023-02-09T08:10:59.154Z,102678.63
2023-02-09T08:13:30.349Z,102667.16
2023-02-09T08:16:02.903Z,102661.84
2023-02-09T08:18:36.174Z,102681.25
2023-02-09T08:21:06.734Z,102675.03
2023-02-09T08:23:35.656Z,102682.97
2023-02-09T08:26:09.872Z,102690.88
2023-02-09T08:28:43.952Z,102689.13
2023-02-09T08:31:18.474Z,102682.03
2023-02-09T08:33:47.869Z,102697.00
2023-02-09T08:36:17.455Z,102682.81
2023-02-09T08:38:44.706Z,102682.78
2023-02-09T08:41:14.729Z,102681.84
2023-02-09T08:43:41.686Z,102681.81
2023-02-09T08:46:13.624Z,102690.53
2023-02-09T08:48:44.279Z,102688.75
2023-02-09T08:51:13.972Z,102693.16
2023-02-09T08:53:41.438Z,102681.59
2023-02-09T08:56:08.796Z,102686.81
2023-02-09T08:58:35.801Z,102677.03
2023-02-09T09:01:03.410Z,102677.00
2023-02-09T09:03:33.114Z,102667.19
2023-02-09T09:06:05.430Z,102674.22
2023-02-09T09:08:34.414Z,102677.63
2023-02-09T09:11:01.697Z,102669.63
2023-02-09T09:13:29.070Z,102663.38
2023-02-09T09:15:56.201Z,102658.94
2023-02-09T09:18:25.216Z,102661.53
2023-02-09T09:20:53.237Z,102666.81
2023-02-09T09:23:21.219Z,102662.34
2023-02-09T09:25:48.765Z,102661.50
2023-02-09T09:28:16.114Z,102667.59
2023-02-09T09:30:43.282Z,102672.03
2023-02-09T09:33:10.257Z,102676.34
2023-02-09T09:35:37.341Z,102680.63
2023-02-09T09:38:04.741Z,102673.38
2023-02-09T09:40:37.710Z,102668.00
2023-02-09T09:43:31.750Z,102680.38
2023-02-09T09:45:59.504Z,102654.69
2023-02-09T09:48:42.801Z,102652.72
2023-02-09T09:51:20.802Z,102665.78
2023-02-09T09:53:51.614Z,102663.06
2023-02-09T09:56:21.175Z,102670.75
2023-02-09T09:58:50.216Z,102652.91
2023-02-09T10:01:21.144Z,102633.16
2023-02-09T10:03:48.196Z,102618.91
2023-02-09T10:06:19.988Z,102623.28
2023-02-09T10:09:04.365Z,102636.13
2023-02-09T10:11:46.178Z,102628.09
2023-02-09T10:14:13.176Z,102650.88
2023-02-09T10:16:41.025Z,102633.84
2023-02-09T10:19:26.303Z,102657.88
2023-02-09T10:21:54.607Z,102657.09
2023-02-09T10:24:29.214Z,102658.81
2023-02-09T10:27:21.920Z,102669.00
2023-02-09T10:29:48.878Z,102651.50
2023-02-09T10:32:21.608Z,102651.41
2023-02-09T10:34:53.368Z,102654.44
2023-02-09T10:37:34.586Z,102654.34
2023-02-09T10:40:28.994Z,102660.44
2023-02-09T10:43:03.447Z,102660.66
2023-02-09T10:45:42.049Z,102659.31
2023-02-09T10:48:19.219Z,102638.44
2023-02-09T10:51:33.701Z,102629.34
2023-02-09T10:54:07.454Z,102644.78
2023-02-09T10:56:46.417Z,102638.22
2023-02-09T10:59:22.104Z,102642.06
2023-02-09T11:02:34.309Z,102638.66
2023-02-09T11:05:01.382Z,102621.78
2023-02-09T11:07:35.112Z,102624.19
2023-02-09T11:10:05.209Z,102629.22
2023-02-09T11:12:32.223Z,102616.72
2023-02-09T11:14:59.194Z,102623.56
2023-02-09T11:17:37.308Z,102633.91
2023-02-09T11:20:20.579Z,102645.38
2023-02-09T11:23:03.055Z,102644.75
2023-02-09T11:26:01.014Z,102631.16
2023-02-09T11:29:27.500Z,102636.47
2023-02-09T11:32:11.252Z,102629.03
2023-02-09T11:35:01.346Z,102635.06
2023-02-09T11:38:06.594Z,102631.78
2023-02-09T11:40:49.248Z,102620.94
2023-02-09T11:43:35.930Z,102625.59
2023-02-09T11:46:15.645Z,102612.72
2023-02-09T11:48:51.418Z,102620.59
2023-02-09T11:51:25.104Z,102606.59
2023-02-09T11:54:09.203Z,102607.50
2023-02-09T11:56:42.220Z,102609.31
2023-02-09T11:59:23.485Z,102595.97
2023-02-09T12:02:25.151Z,102596.81
2023-02-09T12:05:02.406Z,102614.97
2023-02-09T12:08:04.823Z,102597.41
2023-02-09T12:10:52.799Z,102585.69
2023-02-09T12:13:32.139Z,102584.44
2023-02-09T12:16:07.741Z,102593.53
2023-02-09T12:18:36.131Z,102578.78
2023-02-09T12:21:06.016Z,102577.63
2023-02-09T12:23:38.279Z,102595.91
2023-02-09T12:26:17.014Z,102606.59
2023-02-09T12:29:25.000Z,102593.66
2023-02-09T12:32:03.969Z,102598.41
2023-02-09T12:34:50.657Z,102597.09
2023-02-09T12:37:28.919Z,102608.81
2023-02-09T12:40:11.186Z,102609.53
2023-02-09T12:42:53.349Z,102594.28
2023-02-09T12:45:34.797Z,102607.84
2023-02-09T12:48:15.124Z,102597.63
2023-02-09T12:50:54.033Z,102600.09
2023-02-09T12:53:24.179Z,102591.09
2023-02-09T12:56:09.364Z,102595.50
2023-02-09T12:58:55.994Z,102594.91
2023-02-09T13:02:07.815Z,102592.13
2023-02-09T13:04:49.753Z,102585.81
2023-02-09T13:07:38.053Z,102592.78
2023-02-09T13:10:38.259Z,102591.63
2023-02-09T13:13:28.443Z,102578.88
2023-02-09T13:16:01.160Z,102585.09
2023-02-09T13:18:51.578Z,102582.78
2023-02-09T13:22:03.689Z,102580.09
2023-02-09T13:24:39.509Z,102578.97
2023-02-09T13:27:24.623Z,102555.03
2023-02-09T13:29:58.262Z,102573.91
2023-02-09T13:32:52.500Z,102559.69
2023-02-09T13:35:31.326Z,102578.41
2023-02-09T13:38:00.416Z,102579.50
2023-02-09T13:40:33.528Z,102576.97
2023-02-09T13:43:12.586Z,102588.78
2023-02-09T13:45:51.910Z,102583.69
2023-02-09T13:48:35.034Z,102574.75
2023-02-09T13:51:14.863Z,102581.81
2023-02-09T13:53:42.120Z,102584.84
2023-02-09T13:56:12.064Z,102578.59
2023-02-09T13:58:40.397Z,102574.19
2023-02-09T14:01:14.993Z,102583.94
2023-02-09T14:04:02.888Z,102584.72
2023-02-09T14:06:44.504Z,102574.22
2023-02-09T14:09:23.770Z,102569.66
2023-02-09T14:11:59.713Z,102572.25
2023-02-09T14:14:52.355Z,102575.69
2023-02-09T14:17:34.787Z,102566.66
2023-02-09T14:20:03.157Z,102583.47
2023-02-09T14:22:41.657Z,102571.91
2023-02-09T14:25:14.564Z,102568.38
2023-02-09T14:27:47.418Z,102571.19
2023-02-09T14:30:24.600Z,102565.84
2023-02-09T14:32:57.185Z,102565.84
2023-02-09T14:35:33.043Z,102568.47
2023-02-09T14:38:02.776Z,102563.19
2023-02-09T14:40:34.736Z,102543.81
2023-02-09T14:43:10.787Z,102560.63
2023-02-09T14:45:57.167Z,102569.66
2023-02-09T14:48:26.909Z,102565.28
2023-02-09T14:50:57.282Z,102565.44
2023-02-09T14:53:28.616Z,102554.13
2023-02-09T14:55:57.164Z,102571.97
2023-02-09T14:58:28.183Z,102556.97
2023-02-09T15:01:01.197Z,102563.22
2023-02-09T15:03:28.914Z,102571.97
2023-02-09T15:06:02.926Z,102581.63
2023-02-09T15:08:34.577Z,102578.31
2023-02-09T15:11:25.137Z,102582.81
2023-02-09T15:13:58.659Z,102585.59
2023-02-09T15:16:25.639Z,102580.31
2023-02-09T15:18:52.963Z,102576.84
2023-02-09T15:21:19.878Z,102571.75
2023-02-09T15:23:46.821Z,102581.56
2023-02-09T15:26:18.366Z,102586.09
2023-02-09T15:28:45.352Z,102575.63
2023-02-09T15:31:15.948Z,102581.03
2023-02-09T15:33:43.531Z,102581.00
2023-02-09T15:36:21.027Z,102596.97
2023-02-09T15:38:48.178Z,102596.06
2023-02-09T15:41:35.967Z,102584.78
2023-02-09T15:44:35.946Z,102608.75
2023-02-09T15:47:22.061Z,102623.91
2023-02-09T15:49:49.215Z,102631.16
2023-02-09T15:52:17.596Z,102644.47
2023-02-09T15:54:45.166Z,102636.59
2023-02-09T15:57:14.023Z,102637.44
2023-02-09T15:59:42.468Z,102643.00
2023-02-09T16:02:15.533Z,102657.91
2023-02-09T16:04:43.045Z,102651.72
2023-02-09T16:07:14.657Z,102636.00
2023-02-09T16:09:43.457Z,102646.59
2023-02-09T16:12:12.083Z,102644.91
2023-02-09T16:14:39.225Z,102641.53
2023-02-09T16:17:07.709Z,102662.97
2023-02-09T16:19:34.796Z,102657.75
2023-02-09T16:22:06.729Z,102659.47
2023-02-09T16:24:45.331Z,102667.53
2023-02-09T16:27:23.147Z,102664.84
2023-02-09T16:29:50.146Z,102662.91
2023-02-09T16:32:21.963Z,102644.19
2023-02-09T16:34:50.339Z,102637.13
2023-02-09T16:37:29.008Z,102652.19
2023-02-09T16:39:58.151Z,102646.81
2023-02-09T16:42:25.527Z,102642.34
2023-02-09T16:44:53.123Z,102647.69
2023-02-09T16:47:26.869Z,102646.00
2023-02-09T16:50:01.422Z,102667.34
2023-02-09T16:52:30.313Z,102654.28
2023-02-09T16:55:00.912Z,102655.41
2023-02-09T16:57:28.911Z,102657.31
2023-02-09T16:59:56.086Z,102669.00
2023-02-09T17:02:37.102Z,102665.66
2023-02-09T17:05:18.260Z,102669.19
2023-02-09T17:07:54.584Z,102678.19
2023-02-09T17:10:26.109Z,102668.50
2023-02-09T17:12:53.865Z,102684.41
2023-02-09T17:15:30.115Z,102677.28
2023-02-09T17:18:06.319Z,102678.19
2023-02-09T17:20:42.140Z,102681.75
2023-02-09T17:23:23.567Z,102668.50
2023-02-09T17:25:51.594Z,102695.78
2023-02-09T17:28:19.349Z,102676.41
2023-02-09T17:30:48.044Z,102684.31
2023-02-09T17:33:32.269Z,102687.88
2023-02-09T17:36:25.293Z,102696.63
2023-02-09T17:38:48.417Z,102678.09
2023-02-09T17:41:20.419Z,102700.13
2023-02-09T17:43:49.434Z,102694.94
2023-02-09T17:46:18.994Z,102704.56
2023-02-09T17:48:47.200Z,102700.13
2023-02-09T17:51:28.690Z,102708.94
2023-02-09T17:53:55.791Z,102715.19
2023-02-09T17:56:22.776Z,102711.66
2023-02-09T17:58:49.721Z,102721.34
2023-02-09T18:01:33.215Z,102722.28
2023-02-09T18:04:02.059Z,102729.28
2023-02-09T18:06:36.736Z,102728.47
2023-02-09T18:09:11.018Z,102733.75
2023-02-09T18:12:06.642Z,102734.63
2023-02-09T18:14:34.363Z,102739.19
2023-02-09T18:17:01.563Z,102741.75
2023-02-09T18:19:29.074Z,102740.03
2023-02-09T18:22:01.933Z,102744.41
2023-02-09T18:24:32.914Z,102742.59
2023-02-09T18:27:01.039Z,102748.91
2023-02-09T18:29:30.765Z,102748.91
2023-02-09T18:31:59.761Z,102749.84
2023-02-09T18:34:27.447Z,102755.22
2023-02-09T18:36:54.718Z,102756.03
2023-02-09T18:39:21.823Z,102764.91
2023-02-09T18:41:54.090Z,102770.19
2023-02-09T18:44:29.019Z,102768.38
2023-02-09T18:46:57.675Z,102775.47
2023-02-09T18:49:24.652Z,102778.16
2023-02-09T18:51:52.192Z,102774.59
2023-02-09T18:54:19.164Z,102773.72
2023-02-09T18:56:46.110Z,102773.69
2023-02-09T18:59:13.920Z,102770.22
2023-02-09T19:01:41.116Z,102777.28
2023-02-09T19:04:08.120Z,102784.44
2023-02-09T19:06:35.484Z,102777.38
2023-02-09T19:09:02.437Z,102786.19
2023-02-09T19:11:29.422Z,102773.97
2023-02-09T19:14:14.689Z,102781.06
2023-02-09T19:16:41.657Z,102781.13
2023-02-09T19:19:09.387Z,102786.56
2023-02-09T19:21:36.494Z,102793.69
2023-02-09T19:24:05.571Z,102795.47
2023-02-09T19:26:32.468Z,102792.03
2023-02-09T19:28:59.401Z,102789.34
2023-02-09T19:31:26.370Z,102808.81
2023-02-09T19:33:57.656Z,102811.47
2023-02-09T19:36:27.587Z,102811.47
2023-02-09T19:38:55.910Z,102807.94
2023-02-09T19:41:23.460Z,102813.25
2023-02-09T19:43:55.457Z,102808.81
2023-02-09T19:46:22.725Z,102793.97
2023-02-09T19:48:49.732Z,102802.81
2023-02-09T19:51:16.726Z,102794.88
2023-02-09T19:53:43.721Z,102806.44
2023-02-09T19:56:17.270Z,102803.84
2023-02-09T19:58:44.903Z,102806.53
2023-02-09T20:01:12.708Z,102816.22
2023-02-09T20:03:40.018Z,102813.59
2023-02-09T20:06:13.765Z,102807.38
2023-02-09T20:08:41.247Z,102808.28
2023-02-09T20:11:11.470Z,102809.13
2023-02-09T20:13:39.463Z,102803.81
2023-02-09T20:16:14.411Z,102802.03
2023-02-09T20:18:41.305Z,102805.63
2023-02-09T20:21:09.329Z,102801.22
2023-02-09T20:23:37.437Z,102802.97
2023-02-09T20:26:25.116Z,102802.91
2023-02-09T20:28:53.962Z,102794.06
2023-02-09T20:31:23.908Z,102789.59
2023-02-09T20:33:51.156Z,102782.56
2023-02-09T20:36:18.643Z,102777.25
2023-02-09T20:38:46.431Z,102783.41
2023-02-09T20:41:17.230Z,102778.97
2023-02-09T20:44:03.164Z,102775.41
2023-02-09T20:46:44.058Z,102778.91
2023-02-09T20:49:13.798Z,102779.84
2023-02-09T20:51:40.844Z,102771.94
2023-02-09T20:54:07.738Z,102778.13
2023-02-09T20:56:35.163Z,102772.88
2023-02-09T20:59:04.591Z,102784.38
2023-02-09T21:01:31.635Z,102773.75
2023-02-09T21:04:00.226Z,102782.56
2023-02-09T21:06:27.590Z,102782.66
2023-02-09T21:08:54.751Z,102776.47
2023-02-09T21:11:21.807Z,102786.13
2023-02-09T21:13:48.736Z,102779.09
2023-02-09T21:16:16.380Z,102794.13
2023-02-09T21:18:45.678Z,102791.41
2023-02-09T21:21:17.070Z,102783.44
2023-02-09T21:23:45.662Z,102792.22
2023-02-09T21:26:17.029Z,102795.75
2023-02-09T21:28:45.306Z,102800.16
2023-02-09T21:31:16.799Z,102789.63
2023-02-09T21:33:43.751Z,102786.94
2023-02-09T21:36:11.016Z,102787.84
2023-02-09T21:38:41.466Z,102791.41
2023-02-09T21:41:33.789Z,102798.47
2023-02-09T21:44:01.139Z,102797.59
2023-02-09T21:46:28.192Z,102793.19
2023-02-09T21:48:55.715Z,102782.56
2023-02-09T21:51:23.083Z,102801.13
2023-02-09T21:53:50.173Z,102788.69
2023-02-09T21:56:17.206Z,102793.97
2023-02-09T21:58:44.397Z,102804.56
2023-02-09T22:01:11.608Z,102794.00
2023-02-09T22:03:39.806Z,102801.06
2023-02-09T22:06:07.182Z,102802.88
2023-02-09T22:08:34.397Z,102792.34
2023-02-09T22:11:03.234Z,102805.53
2023-02-09T22:13:30.919Z,102802.88
2023-02-09T22:15:57.919Z,102808.19
2023-02-09T22:18:25.619Z,102810.88
2023-02-09T22:20:52.585Z,102811.75
2023-02-09T22:23:20.081Z,102806.53
2023-02-09T22:25:47.323Z,102814.47
2023-02-09T22:28:14.285Z,102816.22
2023-02-09T22:30:41.352Z,102822.44
2023-02-09T22:33:08.244Z,102833.91
2023-02-09T22:35:40.342Z,102827.66
2023-02-09T22:38:07.293Z,102836.53
2023-02-09T22:40:34.208Z,102835.72
2023-02-09T22:43:01.495Z,102842.81
2023-02-09T22:45:28.470Z,102848.06
2023-02-09T22:47:55.413Z,102840.94
2023-02-09T22:50:22.707Z,102855.16
2023-02-09T22:52:49.588Z,102848.94
2023-02-09T22:55:16.571Z,102863.09
2023-02-09T22:57:43.594Z,102864.00
2023-02-09T23:00:13.482Z,102865.75
2023-02-09T23:02:40.431Z,102882.63
2023-02-09T23:05:07.579Z,102865.81
2023-02-09T23:07:34.486Z,102874.59
2023-02-09T23:10:01.406Z,102883.50
2023-02-09T23:12:28.317Z,102879.09
2023-02-09T23:14:55.369Z,102876.44
2023-02-09T23:17:22.334Z,102880.03
2023-02-09T23:19:49.453Z,102872.06
2023-02-09T23:22:16.501Z,102895.97
2023-02-09T23:24:43.472Z,102886.22
2023-02-09T23:27:10.442Z,102898.66
2023-02-09T23:29:37.351Z,102898.66
2023-02-09T23:32:05.129Z,102894.25
2023-02-09T23:34:33.505Z,102898.66
2023-02-09T23:37:08.666Z,102896.06
2023-02-09T23:39:45.596Z,102903.09
2023-02-09T23:42:12.552Z,102895.09
2023-02-09T23:44:39.523Z,102905.66
2023-02-09T23:47:07.258Z,102899.44
2023-02-09T23:49:34.267Z,102903.88
2023-02-09T23:52:01.383Z,102917.97
2023-02-09T23:54:28.401Z,102917.97
2023-02-09T23:56:55.360Z,102921.44
2023-02-09T23:59:22.747Z,102905.53
